createdAt,value
2022-09-28T00:01:24.168Z,25.02
2022-09-28T00:04:27.421Z,24.99
2022-09-28T00:07:30.440Z,24.87
2022-09-28T00:10:33.489Z,24.56
2022-09-28T00:13:36.611Z,24.30
2022-09-28T00:16:44.620Z,24.06
2022-09-28T00:19:50.094Z,23.93
2022-09-28T00:22:55.555Z,23.67
2022-09-28T00:26:07.176Z,23.63
2022-09-28T00:29:19.738Z,23.69
2022-09-28T00:32:22.706Z,24.01
2022-09-28T00:35:26.495Z,23.87
2022-09-28T00:38:30.188Z,23.73
2022-09-28T00:41:33.990Z,23.07
2022-09-28T00:44:46.510Z,23.24
2022-09-28T00:47:58.808Z,23.23
2022-09-28T00:51:05.622Z,23.31
2022-09-28T00:54:09.174Z,23.13
2022-09-28T00:57:15.335Z,22.95
2022-09-28T01:00:18.741Z,22.40
2022-09-28T01:03:21.886Z,22.19
2022-09-28T01:06:28.208Z,22.25
2022-09-28T01:09:33.660Z,22.31
2022-09-28T01:12:36.870Z,22.30
2022-09-28T01:15:48.824Z,21.77
2022-09-28T01:19:20.878Z,21.87
2022-09-28T01:22:54.426Z,21.94
2022-09-28T01:26:12.376Z,22.28
2022-09-28T01:29:31.347Z,21.83
2022-09-28T01:32:43.803Z,22.02
2022-09-28T01:36:29.737Z,21.66
2022-09-28T01:39:39.855Z,21.38
2022-09-28T01:42:45.904Z,21.21
2022-09-28T01:45:52.498Z,21.39
2022-09-28T01:48:58.239Z,21.22
2022-09-28T01:52:11.527Z,21.25
2022-09-28T01:55:33.964Z,21.22
2022-09-28T01:58:56.164Z,21.09
2022-09-28T02:02:13.517Z,20.84
2022-09-28T02:05:20.875Z,20.99
2022-09-28T02:08:31.515Z,20.70
2022-09-28T02:11:34.693Z,20.55
2022-09-28T02:14:38.922Z,20.65
2022-09-28T02:17:42.272Z,20.62
2022-09-28T02:21:00.252Z,20.34
2022-09-28T02:24:21.263Z,20.76
2022-09-28T02:27:39.650Z,20.54
2022-09-28T02:30:44.393Z,20.65
2022-09-28T02:33:47.974Z,20.89
2022-09-28T02:36:51.109Z,20.66
2022-09-28T02:39:54.181Z,20.80
2022-09-28T02:43:16.589Z,20.68
2022-09-28T02:46:45.934Z,20.56
2022-09-28T02:50:21.423Z,20.42
2022-09-28T02:53:43.344Z,20.40
2022-09-28T02:57:01.347Z,20.23
2022-09-28T03:00:20.613Z,20.31
2022-09-28T03:03:42.431Z,20.45
2022-09-28T03:06:55.680Z,20.22
2022-09-28T03:10:07.765Z,20.00
2022-09-28T03:13:13.226Z,19.99
2022-09-28T03:16:18.953Z,19.82
2022-09-28T03:19:26.187Z,19.83
2022-09-28T03:22:29.272Z,19.68
2022-09-28T03:25:32.280Z,19.79
2022-09-28T03:28:35.452Z,19.69
2022-09-28T03:31:38.626Z,19.61
2022-09-28T03:34:41.722Z,19.78
2022-09-28T03:37:44.801Z,19.79
2022-09-28T03:40:58.279Z,19.91
2022-09-28T03:44:01.377Z,19.68
2022-09-28T03:47:04.473Z,19.63
2022-09-28T03:50:07.852Z,19.84
2022-09-28T03:53:10.936Z,19.63
2022-09-28T03:56:15.709Z,19.43
2022-09-28T03:59:19.180Z,19.30
2022-09-28T04:02:22.551Z,19.38
2022-09-28T04:05:28.117Z,19.39
2022-09-28T04:08:31.548Z,19.38
2022-09-28T04:11:59.392Z,19.31
2022-09-28T04:14:58.069Z,19.15
2022-09-28T04:18:01.205Z,19.03
2022-09-28T04:21:07.030Z,19.15
2022-09-28T04:24:11.012Z,19.28
2022-09-28T04:27:14.004Z,19.21
2022-09-28T04:30:17.251Z,19.11
2022-09-28T04:33:20.341Z,18.82
2022-09-28T04:36:24.740Z,19.15
2022-09-28T04:39:27.760Z,19.31
2022-09-28T04:42:30.778Z,19.36
2022-09-28T04:45:33.830Z,19.45
2022-09-28T04:48:38.765Z,19.55
2022-09-28T04:51:43.805Z,19.59
2022-09-28T04:54:46.840Z,19.67
2022-09-28T04:57:49.886Z,19.40
2022-09-28T05:00:53.832Z,18.92
2022-09-28T05:03:56.818Z,18.91
2022-09-28T05:06:59.886Z,19.12
2022-09-28T05:10:02.925Z,19.38
2022-09-28T05:13:06.126Z,19.23
2022-09-28T05:16:10.293Z,19.61
2022-09-28T05:19:13.549Z,19.76
2022-09-28T05:22:16.686Z,19.77
2022-09-28T05:25:20.250Z,19.67
2022-09-28T05:28:28.860Z,19.85
2022-09-28T05:31:31.962Z,19.92
2022-09-28T05:34:35.026Z,19.98
2022-09-28T05:37:41.264Z,19.66
2022-09-28T05:40:44.326Z,19.75
2022-09-28T05:43:47.393Z,19.26
2022-09-28T05:46:50.550Z,18.83
2022-09-28T05:49:54.286Z,18.67
2022-09-28T05:53:05.653Z,18.74
2022-09-28T05:56:08.688Z,18.71
2022-09-28T05:59:11.725Z,18.71
2022-09-28T06:02:14.758Z,18.96
2022-09-28T06:05:17.857Z,18.65
2022-09-28T06:08:20.932Z,18.82
2022-09-28T06:11:24.010Z,18.80
2022-09-28T06:14:27.087Z,18.92
2022-09-28T06:17:31.187Z,19.03
2022-09-28T06:20:37.579Z,19.07
2022-09-28T06:23:42.722Z,18.99
2022-09-28T06:26:50.205Z,18.93
2022-09-28T06:29:53.224Z,18.70
2022-09-28T06:32:58.474Z,18.70
2022-09-28T06:36:01.669Z,18.82
2022-09-28T06:39:04.901Z,18.82
2022-09-28T06:42:07.930Z,18.74
2022-09-28T06:45:12.153Z,18.77
2022-09-28T06:48:15.305Z,18.79
2022-09-28T06:51:18.367Z,18.99
2022-09-28T06:54:21.564Z,19.08
2022-09-28T06:57:24.569Z,18.90
2022-09-28T07:00:33.663Z,18.63
2022-09-28T07:03:36.769Z,18.84
2022-09-28T07:06:41.229Z,18.71
2022-09-28T07:09:48.246Z,18.53
2022-09-28T07:12:55.149Z,18.55
2022-09-28T07:15:59.433Z,18.48
2022-09-28T07:19:02.504Z,18.39
2022-09-28T07:22:05.804Z,18.33
2022-09-28T07:25:09.975Z,18.29
2022-09-28T07:28:13.074Z,18.30
2022-09-28T07:31:16.187Z,18.33
2022-09-28T07:34:19.595Z,18.07
2022-09-28T07:37:22.774Z,18.00
2022-09-28T07:40:25.973Z,18.00
2022-09-28T07:43:29.157Z,17.82
2022-09-28T07:46:34.111Z,18.01
2022-09-28T07:49:37.180Z,18.05
2022-09-28T07:52:42.754Z,18.16
2022-09-28T07:55:55.859Z,18.15
2022-09-28T07:58:58.965Z,17.99
2022-09-28T08:02:02.226Z,17.96
2022-09-28T08:05:05.545Z,17.43
2022-09-28T08:08:10.680Z,17.34
2022-09-28T08:11:16.231Z,17.49
2022-09-28T08:14:19.342Z,17.43
2022-09-28T08:17:24.779Z,17.55
2022-09-28T08:20:28.018Z,17.69
2022-09-28T08:23:31.150Z,17.40
2022-09-28T08:26:34.113Z,17.10
2022-09-28T08:29:37.639Z,17.12
2022-09-28T08:32:40.655Z,17.15
2022-09-28T08:35:44.434Z,17.00
2022-09-28T08:38:47.491Z,17.08
2022-09-28T08:42:16.618Z,17.16
2022-09-28T08:45:23.394Z,17.13
2022-09-28T08:48:31.148Z,16.96
2022-09-28T08:51:39.807Z,17.39
2022-09-28T08:54:47.116Z,17.25
2022-09-28T08:58:02.060Z,16.91
2022-09-28T09:01:06.732Z,17.05
2022-09-28T09:04:09.794Z,17.27
2022-09-28T09:07:37.735Z,17.26
2022-09-28T09:11:08.449Z,17.37
2022-09-28T09:14:29.956Z,17.27
2022-09-28T09:17:57.549Z,17.10
2022-09-28T09:21:09.513Z,16.91
2022-09-28T09:24:31.645Z,17.14
2022-09-28T09:28:03.421Z,17.10
2022-09-28T09:31:27.324Z,16.97
2022-09-28T09:34:39.299Z,16.75
2022-09-28T09:38:09.920Z,17.03
2022-09-28T09:41:30.438Z,17.10
2022-09-28T09:44:42.957Z,17.10
2022-09-28T09:48:00.083Z,17.09
2022-09-28T09:51:47.789Z,17.13
2022-09-28T09:54:58.884Z,17.60
2022-09-28T09:58:26.122Z,17.82
2022-09-28T10:01:36.813Z,17.71
2022-09-28T10:04:45.657Z,17.37
2022-09-28T10:07:57.870Z,17.14
2022-09-28T10:11:15.449Z,17.13
2022-09-28T10:14:22.491Z,16.65
2022-09-28T10:17:25.522Z,17.14
2022-09-28T10:20:30.231Z,17.11
2022-09-28T10:23:37.291Z,17.18
2022-09-28T10:26:42.496Z,17.08
2022-09-28T10:30:08.893Z,17.09
2022-09-28T10:33:34.642Z,17.33
2022-09-28T10:37:07.126Z,17.08
2022-09-28T10:40:49.141Z,17.29
2022-09-28T10:43:58.164Z,17.32
2022-09-28T10:47:03.412Z,17.26
2022-09-28T10:50:21.391Z,17.32
2022-09-28T10:53:24.514Z,17.61
2022-09-28T10:56:30.437Z,18.06
2022-09-28T10:59:42.026Z,17.78
2022-09-28T11:02:45.208Z,17.27
2022-09-28T11:06:04.174Z,16.97
2022-09-28T11:09:21.838Z,17.07
2022-09-28T11:12:27.935Z,17.10
2022-09-28T11:15:32.793Z,17.14
2022-09-28T11:18:35.941Z,16.76
2022-09-28T11:21:44.201Z,17.14
2022-09-28T11:24:48.425Z,17.11
2022-09-28T11:27:54.456Z,17.22
2022-09-28T11:30:58.358Z,17.19
2022-09-28T11:34:41.590Z,17.06
2022-09-28T11:38:09.303Z,17.03
2022-09-28T11:41:36.974Z,16.84
2022-09-28T11:44:47.756Z,16.95
2022-09-28T11:47:57.188Z,16.82
2022-09-28T11:51:19.641Z,16.77
2022-09-28T11:54:30.075Z,16.79
2022-09-28T11:57:38.741Z,16.80
2022-09-28T12:00:51.053Z,16.61
2022-09-28T12:03:58.009Z,16.47
2022-09-28T12:07:07.772Z,16.60
2022-09-28T12:10:32.048Z,16.44
2022-09-28T12:13:38.459Z,16.62
2022-09-28T12:17:06.747Z,16.56
2022-09-28T12:20:26.498Z,16.35
2022-09-28T12:23:35.037Z,16.54
2022-09-28T12:26:48.840Z,16.38
2022-09-28T12:30:07.796Z,16.38
2022-09-28T12:33:15.354Z,16.46
2022-09-28T12:36:46.375Z,16.43
2022-09-28T12:40:26.799Z,16.52
2022-09-28T12:43:52.709Z,16.64
2022-09-28T12:47:32.080Z,16.84
2022-09-28T12:50:44.723Z,16.82
2022-09-28T12:54:02.656Z,16.97
2022-09-28T12:57:08.690Z,17.22
2022-09-28T13:00:15.498Z,17.43
2022-09-28T13:04:06.891Z,17.93
2022-09-28T13:07:26.735Z,18.16
2022-09-28T13:10:48.023Z,18.69
2022-09-28T13:14:11.923Z,18.50
2022-09-28T13:17:35.094Z,18.77
2022-09-28T13:20:57.088Z,18.69
2022-09-28T13:24:20.769Z,19.35
2022-09-28T13:27:32.124Z,19.63
2022-09-28T13:30:37.282Z,19.58
2022-09-28T13:33:42.158Z,19.77
2022-09-28T13:36:48.146Z,20.06
2022-09-28T13:40:00.656Z,20.18
2022-09-28T13:43:19.570Z,20.34
2022-09-28T13:46:32.095Z,20.54
2022-09-28T13:49:41.412Z,20.77
2022-09-28T13:52:53.115Z,20.89
2022-09-28T13:56:07.093Z,21.02
2022-09-28T13:59:13.080Z,21.07
2022-09-28T14:02:22.093Z,21.39
2022-09-28T14:05:36.064Z,21.15
2022-09-28T14:09:08.938Z,21.66
2022-09-28T14:12:35.317Z,21.85
2022-09-28T14:15:39.969Z,21.88
2022-09-28T14:18:44.421Z,21.85
2022-09-28T14:21:50.094Z,21.64
2022-09-28T14:25:07.540Z,22.02
2022-09-28T14:28:38.242Z,22.19
2022-09-28T14:31:42.918Z,22.52
2022-09-28T14:34:49.038Z,22.67
2022-09-28T14:37:57.787Z,22.86
2022-09-28T14:41:28.629Z,22.86
2022-09-28T14:45:06.570Z,23.27
2022-09-28T14:48:18.868Z,23.03
2022-09-28T14:51:27.987Z,22.98
2022-09-28T14:54:54.388Z,22.98
2022-09-28T14:57:59.273Z,23.43
2022-09-28T15:01:07.979Z,24.05
2022-09-28T15:04:13.494Z,23.52
2022-09-28T15:07:24.611Z,23.41
2022-09-28T15:10:33.374Z,23.63
2022-09-28T15:13:36.448Z,23.65
2022-09-28T15:16:39.474Z,23.95
2022-09-28T15:19:59.217Z,24.11
2022-09-28T15:23:02.288Z,24.10
2022-09-28T15:26:06.647Z,24.78
2022-09-28T15:29:20.035Z,25.02
2022-09-28T15:32:27.382Z,24.87
2022-09-28T15:35:30.503Z,24.50
2022-09-28T15:38:33.923Z,25.38
2022-09-28T15:41:37.169Z,25.56
2022-09-28T15:44:40.931Z,25.89
2022-09-28T15:47:44.025Z,25.80
2022-09-28T15:51:00.504Z,26.28
2022-09-28T15:54:04.362Z,25.49
2022-09-28T15:57:07.534Z,26.07
2022-09-28T16:00:26.619Z,25.75
2022-09-28T16:03:30.319Z,26.53
2022-09-28T16:06:33.357Z,26.36
2022-09-28T16:09:54.200Z,27.00
2022-09-28T16:12:59.719Z,27.46
2022-09-28T16:16:03.002Z,27.40
2022-09-28T16:19:06.392Z,27.30
2022-09-28T16:22:16.901Z,27.71
2022-09-28T16:25:22.837Z,27.77
2022-09-28T16:28:34.998Z,28.34
2022-09-28T16:31:38.049Z,27.94
2022-09-28T16:34:42.627Z,28.48
2022-09-28T16:37:46.588Z,28.19
2022-09-28T16:40:50.980Z,28.29
2022-09-28T16:43:58.606Z,27.69
2022-09-28T16:47:01.679Z,28.20
2022-09-28T16:50:08.391Z,29.14
2022-09-28T16:53:18.244Z,29.15
2022-09-28T16:56:21.374Z,29.05
2022-09-28T16:59:24.406Z,29.72
2022-09-28T17:02:45.634Z,29.45
2022-09-28T17:05:52.720Z,29.09
2022-09-28T17:08:55.769Z,28.85
2022-09-28T17:11:59.210Z,29.11
2022-09-28T17:15:02.190Z,29.36
2022-09-28T17:18:06.478Z,29.52
2022-09-28T17:21:19.750Z,29.59
2022-09-28T17:24:23.246Z,30.14
2022-09-28T17:27:28.979Z,29.40
2022-09-28T17:30:32.283Z,30.58
2022-09-28T17:33:35.328Z,30.14
2022-09-28T17:36:38.974Z,29.97
2022-09-28T17:39:42.010Z,29.88
2022-09-28T17:42:45.075Z,29.79
2022-09-28T17:45:48.592Z,30.78
2022-09-28T17:48:53.715Z,31.02
2022-09-28T17:51:56.707Z,30.04
2022-09-28T17:54:59.993Z,30.34
2022-09-28T17:58:19.640Z,30.08
2022-09-28T18:01:25.394Z,30.38
2022-09-28T18:04:50.907Z,30.06
2022-09-28T18:07:54.454Z,29.66
2022-09-28T18:10:57.466Z,29.17
2022-09-28T18:14:00.674Z,29.49
2022-09-28T18:17:04.084Z,29.06
2022-09-28T18:20:11.692Z,29.02
2022-09-28T18:23:14.950Z,29.81
2022-09-28T18:26:18.531Z,28.92
2022-09-28T18:29:21.613Z,29.39
2022-09-28T18:32:24.725Z,29.28
2022-09-28T18:35:27.818Z,29.48
2022-09-28T18:38:31.145Z,29.02
2022-09-28T18:41:35.693Z,28.92
2022-09-28T18:44:38.749Z,29.09
2022-09-28T18:47:41.976Z,28.86
2022-09-28T18:50:45.069Z,29.02
2022-09-28T18:53:48.313Z,29.74
2022-09-28T18:56:55.284Z,29.09
2022-09-28T18:59:58.346Z,28.98
2022-09-28T19:03:01.769Z,28.85
2022-09-28T19:06:09.711Z,29.57
2022-09-28T19:09:13.190Z,29.09
2022-09-28T19:12:16.321Z,29.29
2022-09-28T19:15:20.400Z,29.27
2022-09-28T19:18:23.400Z,29.21
2022-09-28T19:21:26.603Z,29.24
2022-09-28T19:24:29.803Z,29.10
2022-09-28T19:27:32.844Z,28.77
2022-09-28T19:30:35.981Z,29.27
2022-09-28T19:33:40.390Z,29.26
2022-09-28T19:36:43.707Z,29.21
2022-09-28T19:39:46.694Z,29.50
2022-09-28T19:42:49.715Z,29.46
2022-09-28T19:45:54.615Z,29.46
2022-09-28T19:49:04.678Z,29.55
2022-09-28T19:52:16.321Z,29.72
2022-09-28T19:55:19.970Z,29.02
2022-09-28T19:58:24.545Z,28.71
2022-09-28T20:01:31.320Z,29.20
2022-09-28T20:04:34.775Z,29.47
2022-09-28T20:07:39.987Z,29.12
2022-09-28T20:10:55.614Z,29.51
2022-09-28T20:13:59.586Z,29.52
2022-09-28T20:17:02.635Z,29.27
2022-09-28T20:20:06.043Z,29.12
2022-09-28T20:23:12.853Z,29.52
2022-09-28T20:26:16.767Z,29.33
2022-09-28T20:29:19.993Z,29.28
2022-09-28T20:32:23.096Z,29.21
2022-09-28T20:35:33.059Z,29.05
2022-09-28T20:38:36.899Z,29.28
2022-09-28T20:41:40.057Z,29.27
2022-09-28T20:44:43.631Z,28.81
2022-09-28T20:47:46.644Z,29.05
2022-09-28T20:50:49.662Z,29.18
2022-09-28T20:53:57.452Z,28.88
2022-09-28T20:57:00.465Z,28.64
2022-09-28T21:00:03.991Z,28.94
2022-09-28T21:03:07.080Z,29.16
2022-09-28T21:06:12.393Z,29.02
2022-09-28T21:09:16.041Z,29.83
2022-09-28T21:12:19.087Z,30.11
2022-09-28T21:15:22.091Z,29.83
2022-09-28T21:18:25.158Z,29.20
2022-09-28T21:21:28.466Z,29.24
2022-09-28T21:24:31.796Z,29.11
2022-09-28T21:27:34.799Z,29.33
2022-09-28T21:30:37.872Z,29.23
2022-09-28T21:33:40.926Z,28.87
2022-09-28T21:36:44.064Z,29.03
2022-09-28T21:39:47.101Z,28.72
2022-09-28T21:42:52.220Z,28.89
2022-09-28T21:45:57.912Z,29.31
2022-09-28T21:49:02.088Z,29.42
2022-09-28T21:52:05.127Z,29.36
2022-09-28T21:55:08.628Z,29.36
2022-09-28T21:58:11.675Z,28.86
2022-09-28T22:01:18.339Z,28.64
2022-09-28T22:04:24.333Z,28.89
2022-09-28T22:07:27.425Z,29.02
2022-09-28T22:10:30.474Z,28.51
2022-09-28T22:13:40.399Z,28.83
2022-09-28T22:16:43.417Z,29.45
2022-09-28T22:19:46.500Z,28.94
2022-09-28T22:22:51.244Z,28.54
2022-09-28T22:26:15.655Z,30.75
2022-09-28T22:29:18.692Z,29.68
2022-09-28T22:32:24.104Z,28.45
2022-09-28T22:35:27.705Z,28.45
2022-09-28T22:38:32.696Z,28.43
2022-09-28T22:41:35.915Z,28.08
2022-09-28T22:44:38.988Z,28.19
2022-09-28T22:47:42.216Z,28.01
2022-09-28T22:50:52.638Z,28.16
2022-09-28T22:53:55.787Z,27.98
2022-09-28T22:57:01.435Z,28.00
2022-09-28T23:00:04.893Z,28.17
2022-09-28T23:03:08.091Z,28.19
2022-09-28T23:06:12.921Z,27.99
2022-09-28T23:09:18.256Z,27.74
2022-09-28T23:12:21.311Z,27.71
2022-09-28T23:15:25.048Z,27.85
2022-09-28T23:18:30.623Z,27.77
2022-09-28T23:21:33.696Z,27.55
2022-09-28T23:24:38.231Z,27.28
2022-09-28T23:27:44.831Z,27.46
2022-09-28T23:30:48.251Z,27.44
2022-09-28T23:33:51.897Z,27.42
2022-09-28T23:36:57.472Z,27.06
2022-09-28T23:40:00.590Z,27.08
2022-09-28T23:43:03.573Z,27.11
2022-09-28T23:46:07.331Z,26.99
2022-09-28T23:49:10.467Z,26.90
2022-09-28T23:52:13.661Z,26.85
2022-09-28T23:55:17.047Z,26.53
2022-09-28T23:58:20.130Z,26.32
